createdAt,value
2018-03-25T00:00:58.845Z,1.70
2018-03-25T00:03:27.155Z,1.70
2018-03-25T00:05:55.410Z,1.60
2018-03-25T00:08:23.650Z,1.60
2018-03-25T00:10:52.717Z,1.50
2018-03-25T00:13:21.058Z,1.50
2018-03-25T00:15:50.092Z,1.40
2018-03-25T00:18:18.377Z,1.40
2018-03-25T00:20:46.669Z,1.30
2018-03-25T00:23:14.910Z,1.30
2018-03-25T00:25:43.173Z,1.30
2018-03-25T00:28:11.416Z,1.20
2018-03-25T00:30:40.597Z,1.20
2018-03-25T00:33:08.877Z,1.10
2018-03-25T00:35:37.960Z,1.10
2018-03-25T00:38:06.188Z,1.00
2018-03-25T00:40:34.509Z,1.00
2018-03-25T00:43:02.764Z,1.00
2018-03-25T00:45:31.002Z,1.00
2018-03-25T00:47:59.301Z,1.00
2018-03-25T00:50:27.599Z,0.90
2018-03-25T00:52:55.886Z,0.90
2018-03-25T00:55:24.193Z,0.90
2018-03-25T00:57:52.437Z,0.90
2018-03-25T01:00:20.713Z,0.80
2018-03-25T01:02:49.869Z,0.80
2018-03-25T01:05:18.386Z,0.80
2018-03-25T01:07:47.542Z,0.80
2018-03-25T01:10:15.828Z,0.80
2018-03-25T01:12:44.100Z,0.80
2018-03-25T01:15:12.548Z,0.80
2018-03-25T01:17:40.892Z,0.80
2018-03-25T01:20:09.131Z,0.90
2018-03-25T01:22:37.414Z,0.90
2018-03-25T01:25:05.760Z,0.90
2018-03-25T01:27:35.113Z,0.90
2018-03-25T01:30:04.161Z,0.90
2018-03-25T01:32:32.434Z,0.80
2018-03-25T01:35:00.817Z,0.80
2018-03-25T01:37:30.791Z,0.80
2018-03-25T01:39:59.087Z,0.70
2018-03-25T01:42:27.337Z,0.80
2018-03-25T01:44:55.625Z,0.70
2018-03-25T01:47:23.910Z,0.70
2018-03-25T01:49:52.150Z,0.80
2018-03-25T01:52:20.418Z,0.80
2018-03-25T01:54:48.656Z,0.70
2018-03-25T01:57:16.909Z,0.70
2018-03-25T01:59:45.698Z,0.70
2018-03-25T02:02:13.973Z,0.60
2018-03-25T02:04:42.232Z,0.60
2018-03-25T02:07:10.502Z,0.60
2018-03-25T02:09:38.749Z,0.60
2018-03-25T02:12:07.793Z,0.60
2018-03-25T02:14:36.051Z,0.60
2018-03-25T02:17:04.288Z,0.60
2018-03-25T02:19:33.448Z,0.50
2018-03-25T02:22:01.691Z,0.50
2018-03-25T02:24:29.965Z,0.50
2018-03-25T02:26:59.024Z,0.50
2018-03-25T02:29:27.286Z,0.40
2018-03-25T02:31:56.567Z,0.40
2018-03-25T02:34:24.841Z,0.40
2018-03-25T02:36:53.090Z,0.40
2018-03-25T02:39:22.153Z,0.40
2018-03-25T02:41:50.444Z,0.40
2018-03-25T02:44:18.678Z,0.40
2018-03-25T02:46:47.179Z,0.30
2018-03-25T02:49:15.529Z,0.40
2018-03-25T02:51:43.811Z,0.40
2018-03-25T02:54:12.306Z,0.30
2018-03-25T02:56:40.569Z,0.30
2018-03-25T02:59:09.391Z,0.30
2018-03-25T03:01:37.668Z,0.30
2018-03-25T03:04:05.928Z,0.20
2018-03-25T03:06:34.166Z,0.20
2018-03-25T03:09:02.463Z,0.10
2018-03-25T03:11:30.758Z,0.10
2018-03-25T03:13:59.023Z,0.10
2018-03-25T03:16:27.248Z,0.10
2018-03-25T03:18:55.467Z,0.10
2018-03-25T03:21:23.766Z,0.10
2018-03-25T03:23:51.993Z,0.00
2018-03-25T03:26:20.246Z,0.00
2018-03-25T03:28:48.488Z,0.00
2018-03-25T03:31:16.739Z,0.10
2018-03-25T03:33:45.012Z,0.10
2018-03-25T03:36:13.277Z,0.10
2018-03-25T03:38:42.313Z,0.00
2018-03-25T03:41:10.582Z,0.00
2018-03-25T03:43:38.828Z,0.00
2018-03-25T03:46:07.128Z,-0.10
2018-03-25T03:48:35.420Z,-0.10
2018-03-25T03:51:03.664Z,-0.20
2018-03-25T03:53:31.926Z,-0.20
2018-03-25T03:56:00.933Z,-0.20
2018-03-25T03:58:29.252Z,-0.20
2018-03-25T04:00:57.530Z,-0.20
2018-03-25T04:03:25.844Z,-0.10
2018-03-25T04:05:54.896Z,-0.10
2018-03-25T04:08:23.148Z,-0.10
2018-03-25T04:10:51.445Z,-0.10
2018-03-25T04:13:19.732Z,-0.20
2018-03-25T04:15:48.019Z,-0.20
2018-03-25T04:18:16.309Z,-0.30
2018-03-25T04:20:44.608Z,-0.30
2018-03-25T04:23:13.664Z,-0.30
2018-03-25T04:25:41.947Z,-0.30
2018-03-25T04:28:10.187Z,-0.30
2018-03-25T04:30:38.488Z,-0.40
2018-03-25T04:33:06.733Z,-0.40
2018-03-25T04:35:35.008Z,-0.40
2018-03-25T04:38:03.292Z,-0.40
2018-03-25T04:40:31.562Z,-0.40
2018-03-25T04:42:59.830Z,-0.50
2018-03-25T04:45:28.831Z,-0.50
2018-03-25T04:47:57.127Z,-0.50
2018-03-25T04:50:25.368Z,-0.50
2018-03-25T04:52:54.432Z,-0.40
2018-03-25T04:55:22.711Z,-0.50
2018-03-25T04:57:51.818Z,-0.50
2018-03-25T05:00:20.095Z,-0.50
2018-03-25T05:02:48.397Z,-0.50
2018-03-25T05:05:17.400Z,-0.50
2018-03-25T05:07:45.943Z,-0.50
2018-03-25T05:10:14.179Z,-0.50
2018-03-25T05:12:42.497Z,-0.50
2018-03-25T05:15:10.793Z,-0.50
2018-03-25T05:17:39.027Z,-0.50
2018-03-25T05:20:07.320Z,-0.60
2018-03-25T05:22:35.568Z,-0.60
2018-03-25T05:25:03.865Z,-0.60
2018-03-25T05:27:32.139Z,-0.60
2018-03-25T05:30:00.388Z,-0.60
2018-03-25T05:32:28.652Z,-0.60
2018-03-25T05:34:56.912Z,-0.60
2018-03-25T05:37:25.981Z,-0.60
2018-03-25T05:39:54.240Z,-0.60
2018-03-25T05:42:22.523Z,-0.60
2018-03-25T05:44:50.793Z,-0.60
2018-03-25T05:47:19.060Z,-0.60
2018-03-25T05:49:48.343Z,-0.50
2018-03-25T05:52:16.634Z,-0.50
2018-03-25T05:54:44.925Z,-0.50
2018-03-25T05:57:13.220Z,-0.50
2018-03-25T05:59:41.496Z,-0.40
2018-03-25T06:02:09.743Z,-0.40
2018-03-25T06:04:37.989Z,-0.40
2018-03-25T06:07:06.258Z,-0.30
2018-03-25T06:09:35.263Z,-0.20
2018-03-25T06:12:04.323Z,-0.10
2018-03-25T06:14:33.406Z,-0.10
2018-03-25T06:17:01.709Z,-0.10
2018-03-25T06:19:29.988Z,0.00
2018-03-25T06:21:58.213Z,0.10
2018-03-25T06:24:26.465Z,0.10
2018-03-25T06:26:54.701Z,0.20
2018-03-25T06:29:22.998Z,0.40
2018-03-25T06:31:51.287Z,0.50
2018-03-25T06:34:20.304Z,0.70
2018-03-25T06:36:48.577Z,0.70
2018-03-25T06:39:16.905Z,0.90
2018-03-25T06:41:45.137Z,0.90
2018-03-25T06:44:13.410Z,1.00
2018-03-25T06:46:41.650Z,1.20
2018-03-25T06:49:09.886Z,1.30
2018-03-25T06:51:38.169Z,1.30
2018-03-25T06:54:06.443Z,1.40
2018-03-25T06:56:34.722Z,1.50
2018-03-25T06:59:02.956Z,1.50
2018-03-25T07:01:32.016Z,1.70
2018-03-25T07:04:00.286Z,1.70
2018-03-25T07:06:28.535Z,1.80
2018-03-25T07:08:56.773Z,1.90
2018-03-25T07:11:25.870Z,2.10
2018-03-25T07:13:54.914Z,2.10
2018-03-25T07:16:23.180Z,2.10
2018-03-25T07:18:51.512Z,2.20
2018-03-25T07:21:20.652Z,2.30
2018-03-25T07:23:48.901Z,2.40
2018-03-25T07:26:17.146Z,2.50
2018-03-25T07:28:45.447Z,2.60
2018-03-25T07:31:14.497Z,2.80
2018-03-25T07:33:42.742Z,2.80
2018-03-25T07:36:10.984Z,2.90
2018-03-25T07:38:39.237Z,3.00
2018-03-25T07:41:07.513Z,3.10
2018-03-25T07:43:35.867Z,3.20
2018-03-25T07:46:04.086Z,3.30
2018-03-25T07:48:32.341Z,3.40
2018-03-25T07:51:00.620Z,3.50
2018-03-25T07:53:29.559Z,3.60
2018-03-25T07:55:58.596Z,3.80
2018-03-25T07:58:27.651Z,3.90
2018-03-25T08:00:56.668Z,4.10
2018-03-25T08:03:25.745Z,4.10
2018-03-25T08:05:54.770Z,4.30
2018-03-25T08:08:23.058Z,4.20
2018-03-25T08:10:51.317Z,4.40
2018-03-25T08:13:19.607Z,4.50
2018-03-25T08:15:47.902Z,4.60
2018-03-25T08:18:16.195Z,4.70
2018-03-25T08:20:44.456Z,4.80
2018-03-25T08:23:12.691Z,5.00
2018-03-25T08:25:40.972Z,5.00
2018-03-25T08:28:09.248Z,5.10
2018-03-25T08:30:37.540Z,5.20
2018-03-25T08:33:05.772Z,5.20
2018-03-25T08:35:34.822Z,5.40
2018-03-25T08:38:03.108Z,5.40
2018-03-25T08:40:31.337Z,5.50
2018-03-25T08:42:59.657Z,5.60
2018-03-25T08:45:27.928Z,5.70
2018-03-25T08:47:56.198Z,5.80
2018-03-25T08:50:24.484Z,6.00
2018-03-25T08:52:52.849Z,6.10
2018-03-25T08:55:21.078Z,6.20
2018-03-25T08:57:50.109Z,6.40
2018-03-25T09:00:18.395Z,6.40
2018-03-25T09:02:46.681Z,6.50
2018-03-25T09:05:14.917Z,6.50
2018-03-25T09:07:43.994Z,6.70
2018-03-25T09:10:13.157Z,6.70
2018-03-25T09:12:41.468Z,6.80
2018-03-25T09:15:09.707Z,6.90
2018-03-25T09:17:38.003Z,7.00
2018-03-25T09:20:06.251Z,7.00
2018-03-25T09:22:34.540Z,7.10
2018-03-25T09:25:02.799Z,7.20
2018-03-25T09:27:31.083Z,7.30
2018-03-25T09:29:59.381Z,7.40
2018-03-25T09:32:27.667Z,7.50
2018-03-25T09:34:55.953Z,7.60
2018-03-25T09:37:24.182Z,7.70
2018-03-25T09:39:52.454Z,7.90
2018-03-25T09:42:20.712Z,8.00
2018-03-25T09:44:49.740Z,8.20
2018-03-25T09:47:17.983Z,8.20
2018-03-25T09:49:47.033Z,8.40
2018-03-25T09:52:15.325Z,8.40
2018-03-25T09:54:43.607Z,8.60
2018-03-25T09:57:11.932Z,8.70
2018-03-25T09:59:40.203Z,8.80
2018-03-25T10:02:12.355Z,8.90
2018-03-25T10:04:41.472Z,9.10
2018-03-25T10:07:09.719Z,9.10
2018-03-25T10:09:37.992Z,9.20
2018-03-25T10:12:06.586Z,9.30
2018-03-25T10:14:34.884Z,9.40
2018-03-25T10:17:03.121Z,9.50
2018-03-25T10:19:31.423Z,9.60
2018-03-25T10:22:00.464Z,9.70
2018-03-25T10:24:29.652Z,9.70
2018-03-25T10:26:57.885Z,9.80
2018-03-25T10:29:26.910Z,10.10
2018-03-25T10:31:55.159Z,10.10
2018-03-25T10:34:24.219Z,10.40
2018-03-25T10:36:52.507Z,10.30
2018-03-25T10:39:20.766Z,10.60
2018-03-25T10:41:49.061Z,10.80
2018-03-25T10:44:17.350Z,10.90
2018-03-25T10:46:46.417Z,11.30
2018-03-25T10:49:15.477Z,11.30
2018-03-25T10:51:43.713Z,11.50
2018-03-25T10:54:11.989Z,11.70
2018-03-25T10:56:40.305Z,11.90
2018-03-25T10:59:08.621Z,12.10
2018-03-25T11:01:36.863Z,12.30
2018-03-25T11:04:05.254Z,12.60
2018-03-25T11:06:33.549Z,12.80
2018-03-25T11:09:01.824Z,13.00
2018-03-25T11:11:30.888Z,13.50
2018-03-25T11:13:59.164Z,13.40
2018-03-25T11:16:27.498Z,13.60
2018-03-25T11:18:55.731Z,13.80
2018-03-25T11:21:24.018Z,14.00
2018-03-25T11:23:52.324Z,14.20
2018-03-25T11:26:20.631Z,14.40
2018-03-25T11:28:49.719Z,15.00
2018-03-25T11:31:18.819Z,14.90
2018-03-25T11:33:47.933Z,15.40
2018-03-25T11:36:17.000Z,15.60
2018-03-25T11:38:45.299Z,15.60
2018-03-25T11:41:14.432Z,16.00
2018-03-25T11:43:42.699Z,16.00
2018-03-25T11:46:11.014Z,16.20
2018-03-25T11:48:39.342Z,16.40
2018-03-25T11:51:07.680Z,16.60
2018-03-25T11:53:35.944Z,16.80
2018-03-25T11:56:04.263Z,17.00
2018-03-25T11:58:34.211Z,17.30
2018-03-25T12:01:02.513Z,17.20
2018-03-25T12:03:31.684Z,17.40
2018-03-25T12:05:59.947Z,17.40
2018-03-25T12:08:28.248Z,17.70
2018-03-25T12:10:56.532Z,17.80
2018-03-25T12:13:24.794Z,18.00
2018-03-25T12:15:53.111Z,18.30
2018-03-25T12:18:21.401Z,18.70
2018-03-25T12:20:49.690Z,19.00
2018-03-25T12:23:19.694Z,19.70
2018-03-25T12:25:47.999Z,19.70
2018-03-25T12:28:17.082Z,20.50
2018-03-25T12:30:46.352Z,21.00
2018-03-25T12:33:15.567Z,20.90
2018-03-25T12:35:43.844Z,21.40
2018-03-25T12:38:12.127Z,21.80
2018-03-25T12:40:41.174Z,22.20
2018-03-25T12:43:09.487Z,22.10
2018-03-25T12:45:37.802Z,22.10
2018-03-25T12:48:06.071Z,22.20
2018-03-25T12:50:35.123Z,22.20
2018-03-25T12:53:03.373Z,22.20
2018-03-25T12:55:31.676Z,22.20
2018-03-25T12:57:59.920Z,22.30
2018-03-25T13:00:28.228Z,22.40
2018-03-25T13:02:56.465Z,22.40
2018-03-25T13:05:24.762Z,22.30
2018-03-25T13:07:53.005Z,22.00
2018-03-25T13:10:22.071Z,21.20
2018-03-25T13:12:50.468Z,21.20
2018-03-25T13:15:18.793Z,21.10
2018-03-25T13:17:47.046Z,21.00
2018-03-25T13:20:15.298Z,21.20
2018-03-25T13:22:43.611Z,21.20
2018-03-25T13:25:11.906Z,21.60
2018-03-25T13:27:40.160Z,21.70
2018-03-25T13:30:08.438Z,21.80
2018-03-25T13:32:36.733Z,21.90
2018-03-25T13:35:05.012Z,22.00
2018-03-25T13:37:33.308Z,22.10
2018-03-25T13:40:02.318Z,22.30
2018-03-25T13:42:30.636Z,22.30
2018-03-25T13:44:58.913Z,22.40
2018-03-25T13:47:27.154Z,22.60
2018-03-25T13:49:55.446Z,22.60
2018-03-25T13:52:24.496Z,22.50
2018-03-25T13:54:52.753Z,22.40
2018-03-25T13:57:21.002Z,22.40
2018-03-25T13:59:50.052Z,22.50
2018-03-25T14:02:18.348Z,22.40
2018-03-25T14:04:46.644Z,22.70
2018-03-25T14:07:14.944Z,23.00
2018-03-25T14:09:43.251Z,23.40
2018-03-25T14:12:11.481Z,23.70
2018-03-25T14:14:40.512Z,23.50
2018-03-25T14:17:08.784Z,23.50
2018-03-25T14:19:37.087Z,23.10
2018-03-25T14:22:05.631Z,22.90
2018-03-25T14:24:33.964Z,22.60
2018-03-25T14:27:02.198Z,22.40
2018-03-25T14:29:30.443Z,22.10
2018-03-25T14:31:59.511Z,21.50
2018-03-25T14:34:27.797Z,21.50
2018-03-25T14:36:56.047Z,20.90
2018-03-25T14:39:24.325Z,20.60
2018-03-25T14:41:52.631Z,20.30
2018-03-25T14:44:20.908Z,20.10
2018-03-25T14:46:49.208Z,19.90
2018-03-25T14:49:18.212Z,19.40
2018-03-25T14:51:46.514Z,19.40
2018-03-25T14:54:14.759Z,19.30
2018-03-25T14:56:43.820Z,19.00
2018-03-25T14:59:12.075Z,19.00
2018-03-25T15:01:40.388Z,18.60
2018-03-25T15:04:08.667Z,18.20
2018-03-25T15:06:36.967Z,18.00
2018-03-25T15:09:05.998Z,17.90
2018-03-25T15:11:34.271Z,17.90
2018-03-25T15:14:02.530Z,17.90
2018-03-25T15:16:30.879Z,17.80
2018-03-25T15:18:59.131Z,17.80
2018-03-25T15:21:27.415Z,18.20
2018-03-25T15:23:55.664Z,18.80
2018-03-25T15:26:23.942Z,19.50
2018-03-25T15:28:52.215Z,20.20
2018-03-25T15:31:20.496Z,21.00
2018-03-25T15:33:48.773Z,21.70
2018-03-25T15:36:17.019Z,22.20
2018-03-25T15:38:45.303Z,22.60
2018-03-25T15:41:13.573Z,22.80
2018-03-25T15:43:41.817Z,22.90
2018-03-25T15:46:10.128Z,22.90
2018-03-25T15:48:38.404Z,22.70
2018-03-25T15:51:06.697Z,22.30
2018-03-25T15:53:35.020Z,21.90
2018-03-25T15:56:03.317Z,21.50
2018-03-25T15:58:32.339Z,20.50
2018-03-25T16:01:00.577Z,20.50
2018-03-25T16:03:28.854Z,20.10
2018-03-25T16:05:58.041Z,19.50
2018-03-25T16:08:27.131Z,18.80
2018-03-25T16:10:55.370Z,18.70
2018-03-25T16:13:23.677Z,18.40
2018-03-25T16:15:51.939Z,17.90
2018-03-25T16:18:20.225Z,17.50
2018-03-25T16:20:48.483Z,17.30
2018-03-25T16:23:16.792Z,17.00
2018-03-25T16:25:45.840Z,16.60
2018-03-25T16:28:14.116Z,16.50
2018-03-25T16:30:42.416Z,16.40
2018-03-25T16:33:10.650Z,16.20
2018-03-25T16:35:39.732Z,15.90
2018-03-25T16:38:07.975Z,15.80
2018-03-25T16:40:36.242Z,15.60
2018-03-25T16:43:04.481Z,15.40
2018-03-25T16:45:33.504Z,15.10
2018-03-25T16:48:01.822Z,15.00
2018-03-25T16:50:30.071Z,14.90
2018-03-25T16:52:58.382Z,14.70
2018-03-25T16:55:26.679Z,14.50
2018-03-25T16:57:55.693Z,14.00
2018-03-25T17:00:23.971Z,14.00
2018-03-25T17:02:52.217Z,13.90
2018-03-25T17:05:20.521Z,13.70
2018-03-25T17:07:48.764Z,13.60
2018-03-25T17:10:17.021Z,13.50
2018-03-25T17:12:45.321Z,13.40
2018-03-25T17:15:13.598Z,13.20
2018-03-25T17:17:41.898Z,13.00
2018-03-25T17:20:10.939Z,12.70
2018-03-25T17:22:39.195Z,12.70
2018-03-25T17:25:07.477Z,12.50
2018-03-25T17:27:35.783Z,12.40
2018-03-25T17:30:04.048Z,12.20
2018-03-25T17:32:32.386Z,12.00
2018-03-25T17:35:00.667Z,11.90
2018-03-25T17:37:28.944Z,11.80
2018-03-25T17:39:57.257Z,11.70
2018-03-25T17:42:25.544Z,11.50
2018-03-25T17:44:53.788Z,11.30
2018-03-25T17:47:22.034Z,11.10
2018-03-25T17:49:51.101Z,10.80
2018-03-25T17:52:19.357Z,10.80
2018-03-25T17:54:47.668Z,10.60
2018-03-25T17:57:15.909Z,10.50
2018-03-25T17:59:44.812Z,10.30
2018-03-25T18:02:13.116Z,10.20
2018-03-25T18:04:41.406Z,9.90
2018-03-25T18:07:09.730Z,9.70
2018-03-25T18:09:38.017Z,9.60
2018-03-25T18:12:06.307Z,9.50
2018-03-25T18:14:34.606Z,9.50
2018-03-25T18:17:02.935Z,9.30
2018-03-25T18:19:31.193Z,9.20
2018-03-25T18:21:59.489Z,9.10
2018-03-25T18:24:27.766Z,9.00
2018-03-25T18:26:56.811Z,9.00
2018-03-25T18:29:25.059Z,9.00
2018-03-25T18:31:53.375Z,8.90
2018-03-25T18:34:22.421Z,8.80
2018-03-25T18:36:50.708Z,8.80
2018-03-25T18:39:18.963Z,8.80
2018-03-25T18:41:47.213Z,8.80
2018-03-25T18:44:16.253Z,8.70
2018-03-25T18:46:44.537Z,8.70
2018-03-25T18:49:12.820Z,8.60
2018-03-25T18:51:41.855Z,8.30
2018-03-25T18:54:10.963Z,8.20
2018-03-25T18:56:40.021Z,8.00
2018-03-25T18:59:08.361Z,7.90
2018-03-25T19:01:36.651Z,7.80
2018-03-25T19:04:04.960Z,7.70
2018-03-25T19:06:33.223Z,7.70
2018-03-25T19:09:01.460Z,7.60
2018-03-25T19:11:29.769Z,7.60
2018-03-25T19:13:58.147Z,7.50
2018-03-25T19:16:26.404Z,7.50
2018-03-25T19:18:54.659Z,7.40
2018-03-25T19:21:22.950Z,7.30
2018-03-25T19:23:51.255Z,7.10
2018-03-25T19:26:19.514Z,7.00
2018-03-25T19:28:47.777Z,6.90
2018-03-25T19:31:16.061Z,6.80
2018-03-25T19:33:44.380Z,6.70
2018-03-25T19:36:12.727Z,6.70
2018-03-25T19:38:41.031Z,6.60
2018-03-25T19:41:09.332Z,6.60
2018-03-25T19:43:37.667Z,6.50
2018-03-25T19:46:05.971Z,6.40
2018-03-25T19:48:34.283Z,6.20
2018-03-25T19:51:03.355Z,6.00
2018-03-25T19:53:31.667Z,6.00
2018-03-25T19:55:59.940Z,6.00
2018-03-25T19:58:28.202Z,5.90
2018-03-25T20:00:57.265Z,5.90
2018-03-25T20:03:25.480Z,5.80
2018-03-25T20:05:54.558Z,5.90
2018-03-25T20:08:22.809Z,5.90
2018-03-25T20:10:51.123Z,5.90
2018-03-25T20:13:19.447Z,5.90
2018-03-25T20:15:47.780Z,5.90
2018-03-25T20:18:16.800Z,5.80
2018-03-25T20:20:45.055Z,5.80
2018-03-25T20:23:14.073Z,5.50
2018-03-25T20:25:42.343Z,5.50
2018-03-25T20:28:10.633Z,5.40
2018-03-25T20:30:38.932Z,5.40
2018-03-25T20:33:07.949Z,5.10
2018-03-25T20:35:36.206Z,5.10
2018-03-25T20:38:04.520Z,5.10
2018-03-25T20:40:32.772Z,5.10
2018-03-25T20:43:01.105Z,5.10
2018-03-25T20:45:29.399Z,5.10
2018-03-25T20:47:57.688Z,5.00
2018-03-25T20:50:25.933Z,4.80
2018-03-25T20:52:54.220Z,4.70
2018-03-25T20:55:22.461Z,4.60
2018-03-25T20:57:51.458Z,4.40
2018-03-25T21:00:20.523Z,4.30
2018-03-25T21:02:48.808Z,4.30
2018-03-25T21:05:17.059Z,4.30
2018-03-25T21:07:45.284Z,4.20
2018-03-25T21:10:14.298Z,4.20
2018-03-25T21:12:42.602Z,4.20
2018-03-25T21:15:10.854Z,4.10
2018-03-25T21:17:39.119Z,4.10
2018-03-25T21:20:08.176Z,4.00
2018-03-25T21:22:36.428Z,4.00
2018-03-25T21:25:04.668Z,3.80
2018-03-25T21:27:33.730Z,3.70
2018-03-25T21:30:01.962Z,3.70
2018-03-25T21:32:30.287Z,3.70
2018-03-25T21:34:58.564Z,3.70
2018-03-25T21:37:26.837Z,3.70
2018-03-25T21:39:55.123Z,3.70
2018-03-25T21:42:23.394Z,3.60
2018-03-25T21:44:51.688Z,3.60
2018-03-25T21:47:19.956Z,3.50
2018-03-25T21:49:48.241Z,3.40
2018-03-25T21:52:16.541Z,3.20
2018-03-25T21:54:45.547Z,2.90
2018-03-25T21:57:13.847Z,2.90
2018-03-25T21:59:42.140Z,2.90
2018-03-25T22:02:10.380Z,2.80
2018-03-25T22:04:38.663Z,2.70
2018-03-25T22:07:06.943Z,2.70
2018-03-25T22:09:35.259Z,2.70
2018-03-25T22:12:03.551Z,2.70
2018-03-25T22:14:31.831Z,2.70
2018-03-25T22:17:00.121Z,2.70
2018-03-25T22:19:29.173Z,2.70
2018-03-25T22:21:57.413Z,2.70
2018-03-25T22:24:25.699Z,2.70
2018-03-25T22:26:53.984Z,2.70
2018-03-25T22:29:22.258Z,2.70
2018-03-25T22:31:50.509Z,2.70
2018-03-25T22:34:19.539Z,2.80
2018-03-25T22:36:47.786Z,2.80
2018-03-25T22:39:16.072Z,2.80
2018-03-25T22:41:44.364Z,2.80
2018-03-25T22:44:12.631Z,2.80
2018-03-25T22:46:40.928Z,2.70
2018-03-25T22:49:09.155Z,2.70
2018-03-25T22:51:38.158Z,2.50
2018-03-25T22:54:06.451Z,2.50
2018-03-25T22:56:34.725Z,2.40
2018-03-25T22:59:02.956Z,2.40
2018-03-25T23:01:31.240Z,2.30
2018-03-25T23:03:59.528Z,2.30
2018-03-25T23:06:27.863Z,2.20
2018-03-25T23:08:56.143Z,2.20
2018-03-25T23:11:24.379Z,2.30
2018-03-25T23:13:52.726Z,2.30
2018-03-25T23:16:21.182Z,2.30
2018-03-25T23:18:49.476Z,2.40
2018-03-25T23:21:17.705Z,2.40
2018-03-25T23:23:45.977Z,2.40
2018-03-25T23:26:14.247Z,2.30
2018-03-25T23:28:43.241Z,2.10
2018-03-25T23:31:11.543Z,2.10
2018-03-25T23:33:39.769Z,2.00
2018-03-25T23:36:08.828Z,2.10
2018-03-25T23:38:37.097Z,2.10
2018-03-25T23:41:05.345Z,2.10
2018-03-25T23:43:33.638Z,2.00
2018-03-25T23:46:01.920Z,2.00
2018-03-25T23:48:30.151Z,1.90
2018-03-25T23:50:59.170Z,1.90
2018-03-25T23:53:27.444Z,1.90
2018-03-25T23:55:56.479Z,1.80
2018-03-25T23:58:24.714Z,1.80
